sensor_id;sensor_type;location;lat;lon;timestamp;temperature;humidity
8611;DHT22;4343;53.648;10.098;2023-09-30T00:00:15;14.00;99.90
8611;DHT22;4343;53.648;10.098;2023-09-30T00:02:41;14.00;99.90
8611;DHT22;4343;53.648;10.098;2023-09-30T00:05:07;13.90;99.90
8611;DHT22;4343;53.648;10.098;2023-09-30T00:07:33;13.90;99.90
8611;DHT22;4343;53.648;10.098;2023-09-30T00:09:59;13.90;99.90
8611;DHT22;4343;53.648;10.098;2023-09-30T00:12:25;13.90;99.90
8611;DHT22;4343;53.648;10.098;2023-09-30T00:14:52;13.90;99.90
8611;DHT22;4343;53.648;10.098;2023-09-30T00:17:17;13.90;99.90
8611;DHT22;4343;53.648;10.098;2023-09-30T00:19:43;13.90;99.90
8611;DHT22;4343;53.648;10.098;2023-09-30T00:22:10;13.80;99.90
8611;DHT22;4343;53.648;10.098;2023-09-30T00:24:35;13.90;99.90
8611;DHT22;4343;53.648;10.098;2023-09-30T00:27:01;13.80;99.90
8611;DHT22;4343;53.648;10.098;2023-09-30T00:29:27;13.80;99.90
8611;DHT22;4343;53.648;10.098;2023-09-30T00:31:52;13.80;99.90
8611;DHT22;4343;53.648;10.098;2023-09-30T00:34:18;13.80;99.90
8611;DHT22;4343;53.648;10.098;2023-09-30T00:36:43;13.80;99.90
8611;DHT22;4343;53.648;10.098;2023-09-30T00:39:09;13.70;99.90
8611;DHT22;4343;53.648;10.098;2023-09-30T00:41:35;13.70;99.90
8611;DHT22;4343;53.648;10.098;2023-09-30T00:44:02;13.70;99.90
8611;DHT22;4343;53.648;10.098;2023-09-30T00:46:32;13.70;99.90
8611;DHT22;4343;53.648;10.098;2023-09-30T00:48:58;13.70;99.90
8611;DHT22;4343;53.648;10.098;2023-09-30T00:51:25;13.70;99.90
8611;DHT22;4343;53.648;10.098;2023-09-30T00:53:53;13.70;99.90
8611;DHT22;4343;53.648;10.098;2023-09-30T00:56:22;13.70;99.90
8611;DHT22;4343;53.648;10.098;2023-09-30T00:58:48;13.60;99.90
8611;DHT22;4343;53.648;10.098;2023-09-30T01:01:18;13.70;99.90
8611;DHT22;4343;53.648;10.098;2023-09-30T01:03:46;13.60;99.90
8611;DHT22;4343;53.648;10.098;2023-09-30T01:06:12;13.60;99.90
8611;DHT22;4343;53.648;10.098;2023-09-30T01:08:38;13.60;99.90
8611;DHT22;4343;53.648;10.098;2023-09-30T01:11:04;13.60;99.90
8611;DHT22;4343;53.648;10.098;2023-09-30T01:13:36;13.60;99.90
8611;DHT22;4343;53.648;10.098;2023-09-30T01:16:09;13.60;99.90
8611;DHT22;4343;53.648;10.098;2023-09-30T01:18:41;13.50;99.90
8611;DHT22;4343;53.648;10.098;2023-09-30T01:21:08;13.50;99.90
8611;DHT22;4343;53.648;10.098;2023-09-30T01:23:35;13.50;99.90
8611;DHT22;4343;53.648;10.098;2023-09-30T01:26:06;13.40;99.90
8611;DHT22;4343;53.648;10.098;2023-09-30T01:28:32;13.40;99.90
8611;DHT22;4343;53.648;10.098;2023-09-30T01:30:58;13.40;99.90
8611;DHT22;4343;53.648;10.098;2023-09-30T01:33:24;13.40;99.90
8611;DHT22;4343;53.648;10.098;2023-09-30T01:35:49;13.40;99.90
8611;DHT22;4343;53.648;10.098;2023-09-30T01:38:15;13.40;99.90
8611;DHT22;4343;53.648;10.098;2023-09-30T01:40:41;13.40;99.90
8611;DHT22;4343;53.648;10.098;2023-09-30T01:43:07;13.40;99.90
8611;DHT22;4343;53.648;10.098;2023-09-30T01:45:33;13.40;99.90
8611;DHT22;4343;53.648;10.098;2023-09-30T01:47:58;13.40;99.90
8611;DHT22;4343;53.648;10.098;2023-09-30T01:50:24;13.40;99.90
8611;DHT22;4343;53.648;10.098;2023-09-30T01:52:49;13.50;99.90
8611;DHT22;4343;53.648;10.098;2023-09-30T01:55:15;13.50;99.90
8611;DHT22;4343;53.648;10.098;2023-09-30T01:57:41;13.40;99.90
8611;DHT22;4343;53.648;10.098;2023-09-30T02:00:07;13.40;99.90
8611;DHT22;4343;53.648;10.098;2023-09-30T02:02:38;13.50;99.90
8611;DHT22;4343;53.648;10.098;2023-09-30T02:05:04;13.50;99.90
8611;DHT22;4343;53.648;10.098;2023-09-30T02:07:30;13.40;99.90
8611;DHT22;4343;53.648;10.098;2023-09-30T02:09:57;13.40;99.90
8611;DHT22;4343;53.648;10.098;2023-09-30T02:12:22;13.40;99.90
8611;DHT22;4343;53.648;10.098;2023-09-30T02:14:48;13.40;99.90
8611;DHT22;4343;53.648;10.098;2023-09-30T02:17:13;13.40;99.90
8611;DHT22;4343;53.648;10.098;2023-09-30T02:19:39;13.40;99.90
8611;DHT22;4343;53.648;10.098;2023-09-30T02:22:06;13.40;99.90
8611;DHT22;4343;53.648;10.098;2023-09-30T02:24:32;13.40;99.90
8611;DHT22;4343;53.648;10.098;2023-09-30T02:26:57;13.40;99.90
8611;DHT22;4343;53.648;10.098;2023-09-30T02:29:23;13.40;99.90
8611;DHT22;4343;53.648;10.098;2023-09-30T02:31:49;13.30;99.90
8611;DHT22;4343;53.648;10.098;2023-09-30T02:34:14;13.40;99.90
8611;DHT22;4343;53.648;10.098;2023-09-30T02:36:40;13.30;99.90
8611;DHT22;4343;53.648;10.098;2023-09-30T02:39:07;13.30;99.90
8611;DHT22;4343;53.648;10.098;2023-09-30T02:41:34;13.30;99.90
8611;DHT22;4343;53.648;10.098;2023-09-30T02:44:00;13.30;99.90
8611;DHT22;4343;53.648;10.098;2023-09-30T02:46:26;13.30;99.90
8611;DHT22;4343;53.648;10.098;2023-09-30T02:48:53;13.20;99.90
8611;DHT22;4343;53.648;10.098;2023-09-30T02:51:19;13.20;99.90
8611;DHT22;4343;53.648;10.098;2023-09-30T02:53:44;13.20;99.90
8611;DHT22;4343;53.648;10.098;2023-09-30T02:56:10;13.20;99.90
8611;DHT22;4343;53.648;10.098;2023-09-30T02:58:36;13.20;99.90
8611;DHT22;4343;53.648;10.098;2023-09-30T03:01:01;13.20;99.90
8611;DHT22;4343;53.648;10.098;2023-09-30T03:03:27;13.20;99.90
8611;DHT22;4343;53.648;10.098;2023-09-30T03:05:53;13.20;99.90
8611;DHT22;4343;53.648;10.098;2023-09-30T03:08:19;13.20;99.90
8611;DHT22;4343;53.648;10.098;2023-09-30T03:10:45;13.20;99.90
8611;DHT22;4343;53.648;10.098;2023-09-30T03:13:11;13.10;99.90
8611;DHT22;4343;53.648;10.098;2023-09-30T03:15:37;13.10;99.90
8611;DHT22;4343;53.648;10.098;2023-09-30T03:18:04;13.10;99.90
8611;DHT22;4343;53.648;10.098;2023-09-30T03:20:30;13.10;99.90
8611;DHT22;4343;53.648;10.098;2023-09-30T03:22:56;13.10;99.90
8611;DHT22;4343;53.648;10.098;2023-09-30T03:25:22;13.10;99.90
8611;DHT22;4343;53.648;10.098;2023-09-30T03:27:48;13.10;99.90
8611;DHT22;4343;53.648;10.098;2023-09-30T03:30:14;13.10;99.90
8611;DHT22;4343;53.648;10.098;2023-09-30T03:32:43;13.00;99.90
8611;DHT22;4343;53.648;10.098;2023-09-30T03:35:10;13.00;99.90
8611;DHT22;4343;53.648;10.098;2023-09-30T03:37:36;13.00;99.90
8611;DHT22;4343;53.648;10.098;2023-09-30T03:40:03;13.00;99.90
8611;DHT22;4343;53.648;10.098;2023-09-30T03:42:37;13.00;99.90
8611;DHT22;4343;53.648;10.098;2023-09-30T03:45:05;13.00;99.90
8611;DHT22;4343;53.648;10.098;2023-09-30T03:47:34;13.00;99.90
8611;DHT22;4343;53.648;10.098;2023-09-30T03:49:59;13.00;99.90
8611;DHT22;4343;53.648;10.098;2023-09-30T03:52:25;13.00;99.90
8611;DHT22;4343;53.648;10.098;2023-09-30T03:54:51;12.90;99.90
8611;DHT22;4343;53.648;10.098;2023-09-30T03:57:19;12.90;99.90
8611;DHT22;4343;53.648;10.098;2023-09-30T03:59:44;12.90;99.90
8611;DHT22;4343;53.648;10.098;2023-09-30T04:02:11;12.90;99.90
8611;DHT22;4343;53.648;10.098;2023-09-30T04:04:37;13.00;99.90
8611;DHT22;4343;53.648;10.098;2023-09-30T04:07:02;13.00;99.90
8611;DHT22;4343;53.648;10.098;2023-09-30T04:09:31;12.90;99.90
8611;DHT22;4343;53.648;10.098;2023-09-30T04:11:57;12.90;99.90
8611;DHT22;4343;53.648;10.098;2023-09-30T04:14:23;12.90;99.90
8611;DHT22;4343;53.648;10.098;2023-09-30T04:16:50;12.90;99.90
8611;DHT22;4343;53.648;10.098;2023-09-30T04:19:16;12.90;99.90
8611;DHT22;4343;53.648;10.098;2023-09-30T04:21:42;12.90;99.90
8611;DHT22;4343;53.648;10.098;2023-09-30T04:24:08;12.90;99.90
8611;DHT22;4343;53.648;10.098;2023-09-30T04:26:34;12.90;99.90
8611;DHT22;4343;53.648;10.098;2023-09-30T04:29:00;12.90;99.90
8611;DHT22;4343;53.648;10.098;2023-09-30T04:31:30;12.90;99.90
8611;DHT22;4343;53.648;10.098;2023-09-30T04:33:56;12.90;99.90
8611;DHT22;4343;53.648;10.098;2023-09-30T04:36:23;12.90;99.90
8611;DHT22;4343;53.648;10.098;2023-09-30T04:38:49;12.80;99.90
8611;DHT22;4343;53.648;10.098;2023-09-30T04:41:14;12.90;99.90
8611;DHT22;4343;53.648;10.098;2023-09-30T04:43:41;12.80;99.90
8611;DHT22;4343;53.648;10.098;2023-09-30T04:46:09;12.80;99.90
8611;DHT22;4343;53.648;10.098;2023-09-30T04:48:34;12.80;99.90
8611;DHT22;4343;53.648;10.098;2023-09-30T04:51:00;12.80;99.90
8611;DHT22;4343;53.648;10.098;2023-09-30T04:53:30;12.80;99.90
8611;DHT22;4343;53.648;10.098;2023-09-30T04:55:55;12.80;99.90
8611;DHT22;4343;53.648;10.098;2023-09-30T04:58:21;12.80;99.90
8611;DHT22;4343;53.648;10.098;2023-09-30T05:00:47;12.80;99.90
8611;DHT22;4343;53.648;10.098;2023-09-30T05:03:13;12.80;99.90
8611;DHT22;4343;53.648;10.098;2023-09-30T05:05:38;12.80;99.90
8611;DHT22;4343;53.648;10.098;2023-09-30T05:08:04;12.80;99.90
8611;DHT22;4343;53.648;10.098;2023-09-30T05:10:29;12.80;99.90
8611;DHT22;4343;53.648;10.098;2023-09-30T05:12:55;12.80;99.90
8611;DHT22;4343;53.648;10.098;2023-09-30T05:15:21;12.70;99.90
8611;DHT22;4343;53.648;10.098;2023-09-30T05:17:48;12.70;99.90
8611;DHT22;4343;53.648;10.098;2023-09-30T05:20:15;12.80;99.90
8611;DHT22;4343;53.648;10.098;2023-09-30T05:22:43;12.80;99.90
8611;DHT22;4343;53.648;10.098;2023-09-30T05:25:12;12.80;99.90
8611;DHT22;4343;53.648;10.098;2023-09-30T05:27:38;12.70;99.90
8611;DHT22;4343;53.648;10.098;2023-09-30T05:30:05;12.80;99.90
8611;DHT22;4343;53.648;10.098;2023-09-30T05:32:32;12.80;99.90
8611;DHT22;4343;53.648;10.098;2023-09-30T05:34:57;12.80;99.90
8611;DHT22;4343;53.648;10.098;2023-09-30T05:37:24;12.80;99.90
8611;DHT22;4343;53.648;10.098;2023-09-30T05:39:50;12.80;99.90
8611;DHT22;4343;53.648;10.098;2023-09-30T05:42:16;12.80;99.90
8611;DHT22;4343;53.648;10.098;2023-09-30T05:44:42;12.70;99.90
8611;DHT22;4343;53.648;10.098;2023-09-30T05:47:08;12.80;99.90
8611;DHT22;4343;53.648;10.098;2023-09-30T05:49:34;12.70;99.90
8611;DHT22;4343;53.648;10.098;2023-09-30T05:52:02;12.80;99.90
8611;DHT22;4343;53.648;10.098;2023-09-30T05:54:27;12.80;99.90
8611;DHT22;4343;53.648;10.098;2023-09-30T05:56:54;12.80;99.90
8611;DHT22;4343;53.648;10.098;2023-09-30T05:59:20;12.80;99.90
8611;DHT22;4343;53.648;10.098;2023-09-30T06:01:46;12.80;99.90
8611;DHT22;4343;53.648;10.098;2023-09-30T06:04:12;12.80;99.90
8611;DHT22;4343;53.648;10.098;2023-09-30T06:06:38;12.90;99.90
8611;DHT22;4343;53.648;10.098;2023-09-30T06:09:04;12.90;99.90
8611;DHT22;4343;53.648;10.098;2023-09-30T06:11:33;12.90;99.90
8611;DHT22;4343;53.648;10.098;2023-09-30T06:13:59;12.90;99.90
8611;DHT22;4343;53.648;10.098;2023-09-30T06:16:26;12.90;99.90
8611;DHT22;4343;53.648;10.098;2023-09-30T06:18:53;12.90;99.90
8611;DHT22;4343;53.648;10.098;2023-09-30T06:21:19;12.90;99.90
8611;DHT22;4343;53.648;10.098;2023-09-30T06:23:49;12.90;99.90
8611;DHT22;4343;53.648;10.098;2023-09-30T06:26:17;12.90;99.90
8611;DHT22;4343;53.648;10.098;2023-09-30T06:28:43;13.00;99.90
8611;DHT22;4343;53.648;10.098;2023-09-30T06:31:10;13.00;99.90
8611;DHT22;4343;53.648;10.098;2023-09-30T06:33:36;13.00;99.90
8611;DHT22;4343;53.648;10.098;2023-09-30T06:36:08;13.00;99.90
8611;DHT22;4343;53.648;10.098;2023-09-30T06:38:34;13.00;99.90
8611;DHT22;4343;53.648;10.098;2023-09-30T06:40:59;13.10;99.90
8611;DHT22;4343;53.648;10.098;2023-09-30T06:43:27;13.10;99.90
8611;DHT22;4343;53.648;10.098;2023-09-30T06:45:53;13.10;99.90
8611;DHT22;4343;53.648;10.098;2023-09-30T06:48:20;13.10;99.90
8611;DHT22;4343;53.648;10.098;2023-09-30T06:50:47;13.20;99.90
8611;DHT22;4343;53.648;10.098;2023-09-30T06:53:14;13.20;99.90
8611;DHT22;4343;53.648;10.098;2023-09-30T06:55:41;13.30;99.90
8611;DHT22;4343;53.648;10.098;2023-09-30T06:58:07;13.30;99.90
8611;DHT22;4343;53.648;10.098;2023-09-30T07:00:34;13.40;99.90
8611;DHT22;4343;53.648;10.098;2023-09-30T07:03:00;13.50;99.90
8611;DHT22;4343;53.648;10.098;2023-09-30T07:05:27;13.50;99.90
8611;DHT22;4343;53.648;10.098;2023-09-30T07:07:54;13.60;99.90
8611;DHT22;4343;53.648;10.098;2023-09-30T07:10:19;13.70;99.90
8611;DHT22;4343;53.648;10.098;2023-09-30T07:12:45;13.80;99.90
8611;DHT22;4343;53.648;10.098;2023-09-30T07:15:10;13.90;99.90
8611;DHT22;4343;53.648;10.098;2023-09-30T07:17:36;14.00;99.90
8611;DHT22;4343;53.648;10.098;2023-09-30T07:20:05;14.10;99.90
8611;DHT22;4343;53.648;10.098;2023-09-30T07:22:32;14.20;99.90
8611;DHT22;4343;53.648;10.098;2023-09-30T07:24:57;14.30;99.90
8611;DHT22;4343;53.648;10.098;2023-09-30T07:27:23;14.40;99.90
8611;DHT22;4343;53.648;10.098;2023-09-30T07:29:49;14.50;99.90
8611;DHT22;4343;53.648;10.098;2023-09-30T07:32:15;14.60;99.90
8611;DHT22;4343;53.648;10.098;2023-09-30T07:34:41;14.70;99.90
8611;DHT22;4343;53.648;10.098;2023-09-30T07:37:06;14.70;99.90
8611;DHT22;4343;53.648;10.098;2023-09-30T07:39:32;14.80;99.90
8611;DHT22;4343;53.648;10.098;2023-09-30T07:41:58;14.90;99.90
8611;DHT22;4343;53.648;10.098;2023-09-30T07:44:23;14.90;99.90
8611;DHT22;4343;53.648;10.098;2023-09-30T07:46:49;15.00;99.90
8611;DHT22;4343;53.648;10.098;2023-09-30T07:49:14;15.00;99.90
8611;DHT22;4343;53.648;10.098;2023-09-30T07:51:40;15.10;99.90
8611;DHT22;4343;53.648;10.098;2023-09-30T07:54:06;15.20;99.90
8611;DHT22;4343;53.648;10.098;2023-09-30T07:56:31;15.20;99.90
8611;DHT22;4343;53.648;10.098;2023-09-30T07:58:57;15.30;99.90
8611;DHT22;4343;53.648;10.098;2023-09-30T08:01:23;15.40;99.90
8611;DHT22;4343;53.648;10.098;2023-09-30T08:03:48;15.40;99.90
8611;DHT22;4343;53.648;10.098;2023-09-30T08:06:14;15.50;99.90
8611;DHT22;4343;53.648;10.098;2023-09-30T08:08:40;15.50;99.90
8611;DHT22;4343;53.648;10.098;2023-09-30T08:11:06;15.60;99.90
8611;DHT22;4343;53.648;10.098;2023-09-30T08:13:32;15.70;99.90
8611;DHT22;4343;53.648;10.098;2023-09-30T08:16:01;15.80;99.90
8611;DHT22;4343;53.648;10.098;2023-09-30T08:18:26;15.80;99.90
8611;DHT22;4343;53.648;10.098;2023-09-30T08:20:52;15.90;99.90
8611;DHT22;4343;53.648;10.098;2023-09-30T08:23:21;15.90;99.90
8611;DHT22;4343;53.648;10.098;2023-09-30T08:25:46;16.00;99.90
8611;DHT22;4343;53.648;10.098;2023-09-30T08:28:15;16.00;99.90
8611;DHT22;4343;53.648;10.098;2023-09-30T08:30:41;16.10;99.90
8611;DHT22;4343;53.648;10.098;2023-09-30T08:33:07;16.10;99.90
8611;DHT22;4343;53.648;10.098;2023-09-30T08:35:36;16.20;99.90
8611;DHT22;4343;53.648;10.098;2023-09-30T08:38:03;16.30;99.90
8611;DHT22;4343;53.648;10.098;2023-09-30T08:40:29;16.30;99.90
8611;DHT22;4343;53.648;10.098;2023-09-30T08:42:55;16.40;99.90
8611;DHT22;4343;53.648;10.098;2023-09-30T08:45:21;16.40;99.90
8611;DHT22;4343;53.648;10.098;2023-09-30T08:47:46;16.50;99.90
8611;DHT22;4343;53.648;10.098;2023-09-30T08:50:12;16.60;99.90
8611;DHT22;4343;53.648;10.098;2023-09-30T08:52:40;16.70;99.90
8611;DHT22;4343;53.648;10.098;2023-09-30T08:55:07;16.70;99.90
8611;DHT22;4343;53.648;10.098;2023-09-30T08:57:39;16.70;99.90
8611;DHT22;4343;53.648;10.098;2023-09-30T09:00:06;16.80;99.90
8611;DHT22;4343;53.648;10.098;2023-09-30T09:02:34;16.90;99.90
8611;DHT22;4343;53.648;10.098;2023-09-30T09:05:01;17.00;99.90
8611;DHT22;4343;53.648;10.098;2023-09-30T09:07:27;17.10;99.90
8611;DHT22;4343;53.648;10.098;2023-09-30T09:10:12;17.10;99.90
8611;DHT22;4343;53.648;10.098;2023-09-30T09:12:41;17.20;99.90
8611;DHT22;4343;53.648;10.098;2023-09-30T09:15:19;17.30;99.90
8611;DHT22;4343;53.648;10.098;2023-09-30T09:17:48;17.40;99.90
8611;DHT22;4343;53.648;10.098;2023-09-30T09:20:23;17.40;99.90
8611;DHT22;4343;53.648;10.098;2023-09-30T09:22:51;17.50;99.90
8611;DHT22;4343;53.648;10.098;2023-09-30T09:25:19;17.60;99.90
8611;DHT22;4343;53.648;10.098;2023-09-30T09:27:45;17.70;99.90
8611;DHT22;4343;53.648;10.098;2023-09-30T09:30:29;17.80;99.90
8611;DHT22;4343;53.648;10.098;2023-09-30T09:33:04;17.90;99.90
8611;DHT22;4343;53.648;10.098;2023-09-30T09:35:31;17.90;99.90
8611;DHT22;4343;53.648;10.098;2023-09-30T09:40:29;18.10;99.90
8611;DHT22;4343;53.648;10.098;2023-09-30T09:42:55;18.10;99.90
8611;DHT22;4343;53.648;10.098;2023-09-30T09:45:22;18.20;99.90
8611;DHT22;4343;53.648;10.098;2023-09-30T09:47:48;18.30;99.90
8611;DHT22;4343;53.648;10.098;2023-09-30T09:50:14;18.20;99.90
8611;DHT22;4343;53.648;10.098;2023-09-30T09:52:41;18.30;99.90
8611;DHT22;4343;53.648;10.098;2023-09-30T09:55:10;18.50;99.90
8611;DHT22;4343;53.648;10.098;2023-09-30T09:57:36;18.60;99.90
8611;DHT22;4343;53.648;10.098;2023-09-30T10:00:04;18.70;99.90
8611;DHT22;4343;53.648;10.098;2023-09-30T10:02:40;18.80;99.90
8611;DHT22;4343;53.648;10.098;2023-09-30T10:05:06;18.80;99.90
8611;DHT22;4343;53.648;10.098;2023-09-30T10:08:02;18.90;99.90
8611;DHT22;4343;53.648;10.098;2023-09-30T10:10:28;18.90;99.90
8611;DHT22;4343;53.648;10.098;2023-09-30T10:12:55;18.90;99.90
8611;DHT22;4343;53.648;10.098;2023-09-30T10:18:10;19.00;99.90
8611;DHT22;4343;53.648;10.098;2023-09-30T10:20:40;19.10;99.90
8611;DHT22;4343;53.648;10.098;2023-09-30T10:25:52;19.30;99.90
8611;DHT22;4343;53.648;10.098;2023-09-30T10:31:30;19.50;99.90
8611;DHT22;4343;53.648;10.098;2023-09-30T10:36:38;19.80;99.90
8611;DHT22;4343;53.648;10.098;2023-09-30T10:39:05;19.90;99.90
8611;DHT22;4343;53.648;10.098;2023-09-30T10:46:51;20.10;99.90
8611;DHT22;4343;53.648;10.098;2023-09-30T10:49:30;20.30;99.90
8611;DHT22;4343;53.648;10.098;2023-09-30T10:51:59;20.40;99.90
8611;DHT22;4343;53.648;10.098;2023-09-30T10:54:30;20.40;99.90
8611;DHT22;4343;53.648;10.098;2023-09-30T10:56:57;20.50;99.90
8611;DHT22;4343;53.648;10.098;2023-09-30T10:59:31;20.60;99.90
8611;DHT22;4343;53.648;10.098;2023-09-30T11:01:57;20.70;99.90
8611;DHT22;4343;53.648;10.098;2023-09-30T11:04:23;20.80;99.90
8611;DHT22;4343;53.648;10.098;2023-09-30T11:06:55;20.80;99.90
8611;DHT22;4343;53.648;10.098;2023-09-30T11:09:22;20.90;99.90
8611;DHT22;4343;53.648;10.098;2023-09-30T11:11:55;20.90;99.90
8611;DHT22;4343;53.648;10.098;2023-09-30T11:14:25;20.90;99.90
8611;DHT22;4343;53.648;10.098;2023-09-30T11:16:57;20.90;99.90
8611;DHT22;4343;53.648;10.098;2023-09-30T11:19:23;20.90;99.90
8611;DHT22;4343;53.648;10.098;2023-09-30T11:21:50;20.90;99.90
8611;DHT22;4343;53.648;10.098;2023-09-30T11:24:17;20.90;99.90
8611;DHT22;4343;53.648;10.098;2023-09-30T11:26:43;20.90;99.90
8611;DHT22;4343;53.648;10.098;2023-09-30T11:29:18;20.90;99.90
8611;DHT22;4343;53.648;10.098;2023-09-30T11:31:46;21.00;99.90
8611;DHT22;4343;53.648;10.098;2023-09-30T11:34:12;21.00;99.90
8611;DHT22;4343;53.648;10.098;2023-09-30T11:36:48;21.00;99.90
8611;DHT22;4343;53.648;10.098;2023-09-30T11:39:30;21.00;99.90
8611;DHT22;4343;53.648;10.098;2023-09-30T11:41:56;21.00;99.90
8611;DHT22;4343;53.648;10.098;2023-09-30T11:44:23;21.00;99.90
8611;DHT22;4343;53.648;10.098;2023-09-30T11:47:02;21.00;99.90
8611;DHT22;4343;53.648;10.098;2023-09-30T11:49:35;21.10;99.90
8611;DHT22;4343;53.648;10.098;2023-09-30T11:52:04;21.20;99.90
8611;DHT22;4343;53.648;10.098;2023-09-30T11:54:31;21.30;99.90
8611;DHT22;4343;53.648;10.098;2023-09-30T11:56:57;21.30;99.90
8611;DHT22;4343;53.648;10.098;2023-09-30T11:59:24;21.50;99.90
8611;DHT22;4343;53.648;10.098;2023-09-30T12:01:49;21.50;99.90
8611;DHT22;4343;53.648;10.098;2023-09-30T12:04:17;21.50;99.90
8611;DHT22;4343;53.648;10.098;2023-09-30T12:06:44;21.50;99.90
8611;DHT22;4343;53.648;10.098;2023-09-30T12:09:10;21.50;99.90
8611;DHT22;4343;53.648;10.098;2023-09-30T12:11:40;21.50;99.90
8611;DHT22;4343;53.648;10.098;2023-09-30T12:14:10;21.60;99.90
8611;DHT22;4343;53.648;10.098;2023-09-30T12:16:36;21.60;99.90
8611;DHT22;4343;53.648;10.098;2023-09-30T12:19:01;21.60;99.90
8611;DHT22;4343;53.648;10.098;2023-09-30T12:21:27;21.60;99.90
8611;DHT22;4343;53.648;10.098;2023-09-30T12:23:54;21.70;99.90
8611;DHT22;4343;53.648;10.098;2023-09-30T12:26:19;21.80;99.90
8611;DHT22;4343;53.648;10.098;2023-09-30T12:28:45;21.90;99.90
8611;DHT22;4343;53.648;10.098;2023-09-30T12:31:11;22.00;99.90
8611;DHT22;4343;53.648;10.098;2023-09-30T12:33:37;22.20;99.90
8611;DHT22;4343;53.648;10.098;2023-09-30T12:36:02;22.30;99.90
8611;DHT22;4343;53.648;10.098;2023-09-30T12:38:28;22.30;99.90
8611;DHT22;4343;53.648;10.098;2023-09-30T12:40:54;22.30;99.90
8611;DHT22;4343;53.648;10.098;2023-09-30T12:43:21;22.40;99.90
8611;DHT22;4343;53.648;10.098;2023-09-30T12:45:47;22.50;99.90
8611;DHT22;4343;53.648;10.098;2023-09-30T12:48:13;22.60;99.90
8611;DHT22;4343;53.648;10.098;2023-09-30T12:50:40;22.50;99.90
8611;DHT22;4343;53.648;10.098;2023-09-30T12:53:05;22.60;99.90
8611;DHT22;4343;53.648;10.098;2023-09-30T12:55:32;22.50;99.90
8611;DHT22;4343;53.648;10.098;2023-09-30T12:57:58;22.50;99.90
8611;DHT22;4343;53.648;10.098;2023-09-30T13:00:25;22.40;99.90
8611;DHT22;4343;53.648;10.098;2023-09-30T13:02:52;22.30;99.90
8611;DHT22;4343;53.648;10.098;2023-09-30T13:05:17;22.20;99.90
8611;DHT22;4343;53.648;10.098;2023-09-30T13:07:43;22.10;99.90
8611;DHT22;4343;53.648;10.098;2023-09-30T13:10:09;22.00;99.90
8611;DHT22;4343;53.648;10.098;2023-09-30T13:12:35;22.00;99.90
8611;DHT22;4343;53.648;10.098;2023-09-30T13:15:01;21.90;99.90
8611;DHT22;4343;53.648;10.098;2023-09-30T13:17:27;21.80;99.90
8611;DHT22;4343;53.648;10.098;2023-09-30T13:19:54;21.80;99.90
8611;DHT22;4343;53.648;10.098;2023-09-30T13:22:20;21.70;99.90
8611;DHT22;4343;53.648;10.098;2023-09-30T13:24:46;21.60;99.90
8611;DHT22;4343;53.648;10.098;2023-09-30T13:27:11;21.50;99.90
8611;DHT22;4343;53.648;10.098;2023-09-30T13:29:37;21.50;99.90
8611;DHT22;4343;53.648;10.098;2023-09-30T13:32:03;21.40;99.90
8611;DHT22;4343;53.648;10.098;2023-09-30T13:34:29;21.40;99.90
8611;DHT22;4343;53.648;10.098;2023-09-30T13:36:55;21.50;99.90
8611;DHT22;4343;53.648;10.098;2023-09-30T13:39:21;21.50;99.90
8611;DHT22;4343;53.648;10.098;2023-09-30T13:41:47;21.60;99.90
8611;DHT22;4343;53.648;10.098;2023-09-30T13:44:13;21.60;99.90
8611;DHT22;4343;53.648;10.098;2023-09-30T13:46:39;21.70;99.90
8611;DHT22;4343;53.648;10.098;2023-09-30T13:49:04;21.70;99.90
8611;DHT22;4343;53.648;10.098;2023-09-30T13:51:30;21.60;99.90
8611;DHT22;4343;53.648;10.098;2023-09-30T13:53:55;21.40;99.90
8611;DHT22;4343;53.648;10.098;2023-09-30T13:56:21;21.40;99.90
8611;DHT22;4343;53.648;10.098;2023-09-30T13:58:46;21.30;99.90
8611;DHT22;4343;53.648;10.098;2023-09-30T14:01:14;21.10;99.90
8611;DHT22;4343;53.648;10.098;2023-09-30T14:03:40;21.00;99.90
8611;DHT22;4343;53.648;10.098;2023-09-30T14:06:13;21.00;99.90
8611;DHT22;4343;53.648;10.098;2023-09-30T14:08:39;20.80;99.90
8611;DHT22;4343;53.648;10.098;2023-09-30T14:11:04;20.70;99.90
8611;DHT22;4343;53.648;10.098;2023-09-30T14:13:30;20.60;99.90
8611;DHT22;4343;53.648;10.098;2023-09-30T14:15:56;20.50;99.90
8611;DHT22;4343;53.648;10.098;2023-09-30T14:18:23;20.30;99.90
8611;DHT22;4343;53.648;10.098;2023-09-30T14:20:53;20.10;99.90
8611;DHT22;4343;53.648;10.098;2023-09-30T14:23:21;19.90;99.90
8611;DHT22;4343;53.648;10.098;2023-09-30T14:25:49;19.80;99.90
8611;DHT22;4343;53.648;10.098;2023-09-30T14:28:14;19.60;99.90
8611;DHT22;4343;53.648;10.098;2023-09-30T14:30:40;19.50;99.90
8611;DHT22;4343;53.648;10.098;2023-09-30T14:33:06;19.50;99.90
8611;DHT22;4343;53.648;10.098;2023-09-30T14:35:33;19.40;99.90
8611;DHT22;4343;53.648;10.098;2023-09-30T14:37:59;19.40;99.90
8611;DHT22;4343;53.648;10.098;2023-09-30T14:40:26;19.30;99.90
8611;DHT22;4343;53.648;10.098;2023-09-30T14:42:51;19.20;99.90
8611;DHT22;4343;53.648;10.098;2023-09-30T14:45:17;19.20;99.90
8611;DHT22;4343;53.648;10.098;2023-09-30T14:47:42;19.10;99.90
8611;DHT22;4343;53.648;10.098;2023-09-30T14:50:08;19.10;99.90
8611;DHT22;4343;53.648;10.098;2023-09-30T14:52:34;19.10;99.90
8611;DHT22;4343;53.648;10.098;2023-09-30T14:55:00;19.10;99.90
8611;DHT22;4343;53.648;10.098;2023-09-30T14:57:25;19.00;99.90
8611;DHT22;4343;53.648;10.098;2023-09-30T14:59:51;19.00;99.90
8611;DHT22;4343;53.648;10.098;2023-09-30T15:02:16;18.90;99.90
8611;DHT22;4343;53.648;10.098;2023-09-30T15:04:42;18.90;99.90
8611;DHT22;4343;53.648;10.098;2023-09-30T15:07:08;18.90;99.90
8611;DHT22;4343;53.648;10.098;2023-09-30T15:09:33;18.90;99.90
8611;DHT22;4343;53.648;10.098;2023-09-30T15:12:00;18.80;99.90
8611;DHT22;4343;53.648;10.098;2023-09-30T15:14:25;18.80;99.90
8611;DHT22;4343;53.648;10.098;2023-09-30T15:16:51;18.70;99.90
8611;DHT22;4343;53.648;10.098;2023-09-30T15:19:16;18.70;99.90
8611;DHT22;4343;53.648;10.098;2023-09-30T15:21:43;18.60;99.90
8611;DHT22;4343;53.648;10.098;2023-09-30T15:24:08;18.60;99.90
8611;DHT22;4343;53.648;10.098;2023-09-30T15:26:34;18.50;99.90
8611;DHT22;4343;53.648;10.098;2023-09-30T15:29:01;18.40;99.90
8611;DHT22;4343;53.648;10.098;2023-09-30T15:31:28;18.40;99.90
8611;DHT22;4343;53.648;10.098;2023-09-30T15:33:57;18.30;99.90
8611;DHT22;4343;53.648;10.098;2023-09-30T15:36:23;18.30;99.90
8611;DHT22;4343;53.648;10.098;2023-09-30T15:38:48;18.30;99.90
8611;DHT22;4343;53.648;10.098;2023-09-30T15:41:15;18.30;99.90
8611;DHT22;4343;53.648;10.098;2023-09-30T15:43:45;18.30;99.90
8611;DHT22;4343;53.648;10.098;2023-09-30T15:46:11;18.20;99.90
8611;DHT22;4343;53.648;10.098;2023-09-30T15:48:36;18.20;99.90
8611;DHT22;4343;53.648;10.098;2023-09-30T15:51:02;18.20;99.90
8611;DHT22;4343;53.648;10.098;2023-09-30T15:53:27;18.10;99.90
8611;DHT22;4343;53.648;10.098;2023-09-30T15:55:54;18.10;99.90
8611;DHT22;4343;53.648;10.098;2023-09-30T15:58:19;18.10;99.90
8611;DHT22;4343;53.648;10.098;2023-09-30T16:00:45;18.10;99.90